Time;durP1;ratioP1;P1;durP2;ratioP2;P2;SDS_P1;SDS_P2;PMS_P1;PMS_P2;Temp;Humidity;BMP_temperature;BMP_pressure;BME280_temperature;BME280_humidity;BME280_pressure;Samples;Min_cycle;Max_cycle;Signal;HPM_P1;HPM_P2
2023/01/24 00:01:39;;;;;;;;;;;21.80;31.50;;;;;;443752;266;2661;-43
2023/01/24 00:03:41;;;;;;;;;;;21.80;31.50;;;;;;451470;262;1751;-43
2023/01/24 00:05:42;;;;;;;;;;;21.80;31.60;;;;;;464362;256;1699;-43
2023/01/24 00:07:43;;;;;;;;;;;21.80;31.60;;;;;;462477;256;2249;-44
2023/01/24 00:09:44;;;;;;;;;;;21.70;31.60;;;;;;462584;256;1681;-44
2023/01/24 00:11:46;;;;;;;;;;;21.80;31.70;;;;;;462427;256;1674;-43
2023/01/24 00:13:47;;;;;;;;;;;21.70;31.80;;;;;;443906;266;1712;-43
2023/01/24 00:15:48;;;;;;;;;;;21.70;31.80;;;;;;451482;262;2132;-43
2023/01/24 00:17:50;;;;;;;;;;;21.70;31.80;;;;;;464419;256;1862;-43
2023/01/24 00:19:51;;;;;;;;;;;21.70;31.80;;;;;;443961;266;1765;-43
2023/01/24 00:21:52;;;;;;;;;;;21.60;31.80;;;;;;443868;267;2066;-43
2023/01/24 00:23:54;;;;;;;;;;;21.60;31.80;;;;;;443824;267;1766;-44
2023/01/24 00:25:55;;;;;;;;;;;21.60;31.90;;;;;;451408;262;1789;-44
2023/01/24 00:27:56;;;;;;;;;;;21.60;31.80;;;;;;444204;267;2256;-43
2023/01/24 00:29:58;;;;;;;;;;;21.60;31.90;;;;;;451454;262;2070;-43
2023/01/24 00:31:59;;;;;;;;;;;21.50;31.90;;;;;;451448;262;2031;-43
2023/01/24 00:34:01;;;;;;;;;;;21.50;31.90;;;;;;464376;256;2257;-43
2023/01/24 00:36:02;;;;;;;;;;;21.50;31.90;;;;;;462674;256;1661;-44
2023/01/24 00:38:04;;;;;;;;;;;21.50;31.90;;;;;;443921;266;2116;-43
2023/01/24 00:40:05;;;;;;;;;;;21.40;31.90;;;;;;444072;267;1978;-43
2023/01/24 00:42:06;;;;;;;;;;;21.50;32.00;;;;;;451617;262;2147;-43
2023/01/24 00:44:07;;;;;;;;;;;21.50;32.00;;;;;;464574;256;2408;-43
2023/01/24 00:46:09;;;;;;;;;;;21.40;32.00;;;;;;463088;256;2498;-43
2023/01/24 00:48:10;;;;;;;;;;;21.50;32.10;;;;;;463066;256;2215;-43
2023/01/24 00:50:12;;;;;;;;;;;21.40;32.00;;;;;;462981;256;1612;-43
2023/01/24 00:52:13;;;;;;;;;;;21.40;32.00;;;;;;463389;256;2387;-44
2023/01/24 00:54:14;;;;;;;;;;;21.40;32.00;;;;;;463226;256;1837;-43
2023/01/24 00:56:16;;;;;;;;;;;21.40;32.10;;;;;;463241;256;1641;-43
2023/01/24 00:58:17;;;;;;;;;;;21.30;32.00;;;;;;463633;256;1669;-44
2023/01/24 01:00:18;;;;;;;;;;;21.30;32.00;;;;;;463263;256;1901;-43
2023/01/24 01:02:20;;;;;;;;;;;21.30;32.00;;;;;;463495;256;2202;-43
2023/01/24 01:04:21;;;;;;;;;;;21.30;32.00;;;;;;444891;266;1801;-43
2023/01/24 01:06:22;;;;;;;;;;;21.30;32.10;;;;;;452350;262;2262;-43
2023/01/24 01:08:24;;;;;;;;;;;21.30;32.10;;;;;;464998;256;1752;-44
2023/01/24 01:10:25;;;;;;;;;;;21.40;32.10;;;;;;463283;257;1720;-43
2023/01/24 01:12:26;;;;;;;;;;;21.60;31.80;;;;;;444543;266;1827;-44
2023/01/24 01:14:28;;;;;;;;;;;21.80;31.50;;;;;;444575;267;1734;-44
2023/01/24 01:16:29;;;;;;;;;;;21.90;31.20;;;;;;452251;262;1431;-44
2023/01/24 01:18:30;;;;;;;;;;;22.00;31.10;;;;;;465104;256;1724;-44
2023/01/24 01:20:31;;;;;;;;;;;22.10;30.80;;;;;;463741;256;1770;-44
2023/01/24 01:22:33;;;;;;;;;;;22.20;30.70;;;;;;463549;256;1700;-43
2023/01/24 01:24:34;;;;;;;;;;;22.30;30.60;;;;;;463619;256;2449;-44
2023/01/24 01:26:35;;;;;;;;;;;22.40;30.60;;;;;;444797;266;2189;-44
2023/01/24 01:28:37;;;;;;;;;;;22.40;30.40;;;;;;444872;267;1710;-44
2023/01/24 01:30:38;;;;;;;;;;;22.50;30.40;;;;;;444698;267;1733;-44
2023/01/24 01:32:39;;;;;;;;;;;22.50;30.30;;;;;;452239;262;1791;-44
2023/01/24 01:34:41;;;;;;;;;;;22.60;30.30;;;;;;465535;256;2028;-44
2023/01/24 01:36:42;;;;;;;;;;;22.60;30.20;;;;;;463342;256;1689;-44
2023/01/24 01:38:43;;;;;;;;;;;22.60;30.10;;;;;;444699;266;1926;-44
2023/01/24 01:40:45;;;;;;;;;;;22.70;30.10;;;;;;452583;262;1702;-44
2023/01/24 01:42:46;;;;;;;;;;;22.70;30.10;;;;;;465136;256;1678;-43
2023/01/24 01:44:49;;;;;;;;;;;22.70;30.00;;;;;;444630;266;2065;-44
2023/01/24 01:46:49;;;;;;;;;;;22.80;30.00;;;;;;452520;262;2432;-44
2023/01/24 01:48:50;;;;;;;;;;;22.80;30.00;;;;;;465614;256;1289;-44
2023/01/24 01:50:51;;;;;;;;;;;22.80;30.00;;;;;;444690;266;1683;-44
2023/01/24 01:52:53;;;;;;;;;;;22.80;30.00;;;;;;452219;262;1649;-44
2023/01/24 01:54:54;;;;;;;;;;;22.90;30.00;;;;;;465645;256;1529;-44
2023/01/24 01:56:55;;;;;;;;;;;22.90;30.00;;;;;;463381;256;1511;-44
2023/01/24 01:58:57;;;;;;;;;;;22.90;29.90;;;;;;445021;266;1666;-44
2023/01/24 02:00:58;;;;;;;;;;;22.90;29.90;;;;;;445046;267;1702;-44
2023/01/24 02:03:37;;;;;;;;;;;23.00;29.90;;;;;;444789;267;1772;-44
2023/01/24 02:05:01;;;;;;;;;;;23.00;29.90;;;;;;451677;263;1790;-44
2023/01/24 02:07:02;;;;;;;;;;;23.00;29.80;;;;;;465446;256;2198;-44
2023/01/24 02:09:03;;;;;;;;;;;23.00;29.80;;;;;;444968;266;1713;-44
2023/01/24 02:13:24;;;;;;;;;;;23.00;29.80;;;;;;465455;256;2200;-43
2023/01/24 02:17:44;;;;;;;;;;;23.10;29.80;;;;;;444556;267;1919;-44
2023/01/24 02:19:46;;;;;;;;;;;23.10;29.70;;;;;;444573;267;2013;-43
2023/01/24 02:21:47;;;;;;;;;;;23.10;29.70;;;;;;452481;262;1957;-44
2023/01/24 02:23:48;;;;;;;;;;;23.20;29.80;;;;;;465119;256;1218;-44
2023/01/24 02:25:50;;;;;;;;;;;23.10;29.70;;;;;;463355;256;2023;-44
2023/01/24 02:27:51;;;;;;;;;;;23.10;29.70;;;;;;444531;266;2194;-43
2023/01/24 02:29:52;;;;;;;;;;;23.20;29.70;;;;;;444755;267;1975;-44
2023/01/24 02:31:54;;;;;;;;;;;23.20;29.70;;;;;;452362;262;1704;-44
2023/01/24 02:33:55;;;;;;;;;;;23.20;29.70;;;;;;465196;256;1739;-44
2023/01/24 02:35:56;;;;;;;;;;;23.20;29.70;;;;;;452277;261;2098;-44
2023/01/24 02:37:57;;;;;;;;;;;23.20;29.70;;;;;;452205;262;1658;-44
2023/01/24 02:39:59;;;;;;;;;;;23.20;29.70;;;;;;465147;256;1707;-44
2023/01/24 02:42:00;;;;;;;;;;;23.30;29.70;;;;;;444638;266;1725;-44
2023/01/24 02:44:02;;;;;;;;;;;23.20;29.70;;;;;;444626;267;1997;-44
2023/01/24 02:46:03;;;;;;;;;;;23.20;29.60;;;;;;444732;267;2232;-44
2023/01/24 02:48:04;;;;;;;;;;;23.30;29.70;;;;;;444894;267;2162;-44
2023/01/24 02:50:08;;;;;;;;;;;23.30;29.60;;;;;;444884;267;1714;-44
2023/01/24 02:54:26;;;;;;;;;;;23.30;29.60;;;;;;465213;256;1751;-44
2023/01/24 02:58:47;;;;;;;;;;;23.30;29.60;;;;;;463515;257;1690;-43
2023/01/24 03:00:49;;;;;;;;;;;23.30;29.60;;;;;;444852;266;1702;-44
2023/01/24 03:02:50;;;;;;;;;;;23.30;29.60;;;;;;452159;262;1782;-44
2023/01/24 03:04:51;;;;;;;;;;;23.40;29.60;;;;;;465610;256;1294;-44
2023/01/24 03:06:53;;;;;;;;;;;23.40;29.60;;;;;;444689;266;1274;-43
2023/01/24 03:08:54;;;;;;;;;;;23.40;29.60;;;;;;452625;262;2126;-44
2023/01/24 03:10:55;;;;;;;;;;;23.40;29.60;;;;;;465608;256;1443;-44
2023/01/24 03:36:13;;;;;;;;;;;23.50;29.50;;;;;;463365;257;1764;-44
2023/01/24 03:40:30;;;;;;;;;;;23.50;29.50;;;;;;463323;257;1715;-44
2023/01/24 03:42:31;;;;;;;;;;;23.50;29.50;;;;;;444863;266;1997;-44
2023/01/24 03:44:33;;;;;;;;;;;23.50;29.50;;;;;;452285;262;1778;-44
2023/01/24 03:46:39;;;;;;;;;;;23.50;29.50;;;;;;465122;256;1697;-44
2023/01/24 03:48:36;;;;;;;;;;;23.60;29.50;;;;;;444638;267;2508;-44
2023/01/24 03:52:56;;;;;;;;;;;23.50;29.50;;;;;;452253;262;1512;-44
2023/01/24 03:54:57;;;;;;;;;;;23.50;29.50;;;;;;465162;256;1693;-44
2023/01/24 03:56:59;;;;;;;;;;;23.50;29.50;;;;;;452668;261;1744;-44
2023/01/24 03:59:00;;;;;;;;;;;23.60;29.50;;;;;;444707;267;1198;-44
2023/01/24 04:01:01;;;;;;;;;;;23.60;29.50;;;;;;444775;267;1521;-44
2023/01/24 04:03:02;;;;;;;;;;;23.60;29.50;;;;;;445070;267;1235;-44
2023/01/24 04:05:13;;;;;;;;;;;23.60;29.50;;;;;;444681;267;1558;-43
2023/01/24 04:07:14;;;;;;;;;;;23.60;29.50;;;;;;444890;267;1204;-44
2023/01/24 04:09:16;;;;;;;;;;;23.60;29.50;;;;;;445052;267;2127;-44
2023/01/24 04:11:17;;;;;;;;;;;23.60;29.50;;;;;;445040;267;1698;-44
2023/01/24 04:13:18;;;;;;;;;;;23.70;29.50;;;;;;444638;267;1862;-44
2023/01/24 04:15:20;;;;;;;;;;;23.60;29.50;;;;;;452472;262;1643;-44
2023/01/24 04:17:21;;;;;;;;;;;23.60;29.50;;;;;;465608;256;1695;-44
2023/01/24 04:19:22;;;;;;;;;;;23.60;29.50;;;;;;463644;256;1695;-44
2023/01/24 04:21:24;;;;;;;;;;;23.70;29.50;;;;;;463440;256;1852;-44
2023/01/24 04:23:25;;;;;;;;;;;23.60;29.50;;;;;;452623;261;1701;-44
2023/01/24 04:25:26;;;;;;;;;;;23.60;29.50;;;;;;445024;267;1711;-44
2023/01/24 04:27:28;;;;;;;;;;;23.70;29.50;;;;;;452611;262;2182;-44
2023/01/24 04:29:29;;;;;;;;;;;23.70;29.40;;;;;;465599;256;1410;-44
2023/01/24 04:31:30;;;;;;;;;;;23.70;29.50;;;;;;445072;266;1196;-44
2023/01/24 04:33:32;;;;;;;;;;;23.60;29.40;;;;;;445055;267;1234;-44
2023/01/24 04:35:33;;;;;;;;;;;23.70;29.50;;;;;;444650;267;1361;-44
2023/01/24 04:37:34;;;;;;;;;;;23.70;29.50;;;;;;444932;267;1237;-43
2023/01/24 04:39:35;;;;;;;;;;;23.70;29.40;;;;;;452605;262;1228;-44
2023/01/24 04:41:37;;;;;;;;;;;23.70;29.50;;;;;;465211;256;1293;-44
2023/01/24 04:43:38;;;;;;;;;;;23.60;29.50;;;;;;445049;266;1324;-44
2023/01/24 04:45:39;;;;;;;;;;;23.50;29.70;;;;;;444649;267;1755;-43
2023/01/24 04:47:41;;;;;;;;;;;23.30;29.90;;;;;;452550;262;2162;-44
2023/01/24 04:49:42;;;;;;;;;;;23.10;30.00;;;;;;465307;256;2165;-44
2023/01/24 04:51:43;;;;;;;;;;;22.90;30.20;;;;;;444715;266;2407;-44
2023/01/24 04:53:45;;;;;;;;;;;22.80;30.40;;;;;;444860;267;1768;-43
2023/01/24 04:55:46;;;;;;;;;;;22.70;30.60;;;;;;444661;267;1731;-44
2023/01/24 04:57:47;;;;;;;;;;;22.60;30.70;;;;;;452117;262;1264;-43
2023/01/24 04:59:49;;;;;;;;;;;22.50;30.90;;;;;;465336;256;1987;-43
2023/01/24 05:01:50;;;;;;;;;;;22.40;31.00;;;;;;463402;256;2013;-44
2023/01/24 05:03:58;;;;;;;;;;;22.40;31.00;;;;;;463538;256;1494;-43
2023/01/24 05:05:53;;;;;;;;;;;22.30;31.10;;;;;;463081;257;1907;-43
2023/01/24 05:07:54;;;;;;;;;;;22.20;31.20;;;;;;463462;256;2210;-43
2023/01/24 05:09:55;;;;;;;;;;;22.20;31.20;;;;;;452195;261;1727;-44
2023/01/24 05:11:57;;;;;;;;;;;22.10;31.30;;;;;;452588;262;1679;-43
2023/01/24 05:13:58;;;;;;;;;;;22.10;31.30;;;;;;465321;256;1730;-43
2023/01/24 05:15:59;;;;;;;;;;;22.10;31.40;;;;;;444713;266;1267;-43
2023/01/24 05:18:01;;;;;;;;;;;22.00;31.40;;;;;;445023;267;1259;-43
2023/01/24 05:20:02;;;;;;;;;;;22.00;31.50;;;;;;444917;267;1181;-43
2023/01/24 05:22:03;;;;;;;;;;;22.00;31.70;;;;;;444736;267;1145;-44
2023/01/24 05:24:05;;;;;;;;;;;22.00;31.70;;;;;;444856;267;1145;-43
2023/01/24 05:26:06;;;;;;;;;;;21.90;31.70;;;;;;444856;267;1284;-43
2023/01/24 05:28:07;;;;;;;;;;;21.90;31.70;;;;;;452239;262;2225;-43
2023/01/24 05:30:09;;;;;;;;;;;21.90;31.70;;;;;;465045;256;1289;-43
2023/01/24 05:32:10;;;;;;;;;;;21.90;31.70;;;;;;444532;266;1520;-44
2023/01/24 05:34:11;;;;;;;;;;;21.90;31.80;;;;;;452344;262;1296;-43
2023/01/24 05:36:13;;;;;;;;;;;21.80;31.80;;;;;;465140;256;1688;-43
2023/01/24 05:38:14;;;;;;;;;;;21.80;31.80;;;;;;444948;266;1785;-44
2023/01/24 05:40:15;;;;;;;;;;;21.80;31.90;;;;;;452175;262;1677;-43
2023/01/24 05:42:17;;;;;;;;;;;21.70;31.90;;;;;;465216;256;1696;-44
2023/01/24 05:44:18;;;;;;;;;;;21.70;31.90;;;;;;444891;266;1725;-44
2023/01/24 05:46:19;;;;;;;;;;;21.70;31.90;;;;;;452402;262;1407;-43
2023/01/24 05:48:20;;;;;;;;;;;21.70;32.00;;;;;;465172;256;2209;-43
2023/01/24 05:50:22;;;;;;;;;;;21.60;31.90;;;;;;463200;256;1600;-44
2023/01/24 05:52:23;;;;;;;;;;;21.60;31.90;;;;;;444318;266;2176;-43
2023/01/24 05:54:24;;;;;;;;;;;21.60;32.00;;;;;;444389;267;1653;-43
2023/01/24 05:56:27;;;;;;;;;;;21.70;32.00;;;;;;451869;262;1838;-44
2023/01/24 05:58:27;;;;;;;;;;;21.60;32.00;;;;;;464866;256;2387;-44
2023/01/24 06:00:28;;;;;;;;;;;21.60;32.00;;;;;;464935;255;1915;-43
2023/01/24 06:02:30;;;;;;;;;;;21.60;32.10;;;;;;444445;266;2277;-43
2023/01/24 06:04:31;;;;;;;;;;;21.60;32.10;;;;;;444410;267;1744;-43
2023/01/24 06:06:32;;;;;;;;;;;21.50;32.10;;;;;;444435;267;1911;-43
2023/01/24 06:08:34;;;;;;;;;;;21.50;32.10;;;;;;444584;267;2221;-43
2023/01/24 06:10:35;;;;;;;;;;;21.40;32.10;;;;;;444544;267;1780;-43
2023/01/24 06:12:36;;;;;;;;;;;21.50;32.10;;;;;;444691;267;1279;-43
2023/01/24 06:14:38;;;;;;;;;;;21.50;32.10;;;;;;444699;267;1268;-43
2023/01/24 06:16:39;;;;;;;;;;;21.50;32.10;;;;;;452462;262;1242;-43
2023/01/24 06:18:41;;;;;;;;;;;21.40;32.10;;;;;;465091;256;2220;-44
2023/01/24 06:20:42;;;;;;;;;;;21.40;32.20;;;;;;444659;266;1934;-43
2023/01/24 06:22:43;;;;;;;;;;;21.40;32.20;;;;;;444756;267;1714;-44
2023/01/24 06:24:44;;;;;;;;;;;21.40;32.20;;;;;;452187;262;1607;-43
2023/01/24 06:26:46;;;;;;;;;;;21.40;32.20;;;;;;465133;256;1590;-43
2023/01/24 06:28:47;;;;;;;;;;;21.30;32.20;;;;;;444549;266;2179;-44
2023/01/24 06:30:48;;;;;;;;;;;21.30;32.20;;;;;;444494;267;1352;-43
2023/01/24 06:32:50;;;;;;;;;;;21.40;32.20;;;;;;444514;267;1745;-43
2023/01/24 06:34:51;;;;;;;;;;;21.40;32.30;;;;;;444547;267;1352;-44
2023/01/24 06:36:53;;;;;;;;;;;21.40;32.30;;;;;;452194;262;1633;-44
2023/01/24 06:38:54;;;;;;;;;;;21.30;32.20;;;;;;465079;256;1826;-43
2023/01/24 06:40:55;;;;;;;;;;;21.30;32.20;;;;;;452029;261;1504;-44
2023/01/24 06:42:57;;;;;;;;;;;21.30;32.20;;;;;;452067;262;1305;-44
2023/01/24 06:44:58;;;;;;;;;;;21.30;32.20;;;;;;444835;267;1721;-43
2023/01/24 06:46:59;;;;;;;;;;;21.30;32.30;;;;;;452087;262;1676;-43
2023/01/24 06:49:01;;;;;;;;;;;21.30;32.30;;;;;;444439;267;2221;-43
2023/01/24 06:51:02;;;;;;;;;;;21.30;32.30;;;;;;452256;262;1217;-43
2023/01/24 06:53:03;;;;;;;;;;;21.30;32.30;;;;;;444855;267;2122;-43
2023/01/24 06:55:05;;;;;;;;;;;21.20;32.20;;;;;;452080;262;1272;-44
2023/01/24 06:57:06;;;;;;;;;;;21.30;32.30;;;;;;444496;267;2107;-43
2023/01/24 06:59:07;;;;;;;;;;;21.20;32.30;;;;;;452101;262;1670;-43
2023/01/24 07:01:09;;;;;;;;;;;21.20;32.30;;;;;;465113;256;1745;-43
2023/01/24 07:03:10;;;;;;;;;;;21.20;32.30;;;;;;463251;256;1807;-43
2023/01/24 07:05:11;;;;;;;;;;;21.20;32.40;;;;;;463279;256;1674;-43
2023/01/24 07:07:13;;;;;;;;;;;21.20;32.30;;;;;;463339;256;1356;-44
2023/01/24 07:09:14;;;;;;;;;;;21.20;32.30;;;;;;463324;256;2210;-43
2023/01/24 07:11:15;;;;;;;;;;;21.20;32.30;;;;;;462906;256;2154;-43
2023/01/24 07:13:17;;;;;;;;;;;21.20;32.30;;;;;;463147;256;1422;-43
2023/01/24 07:15:18;;;;;;;;;;;21.10;32.30;;;;;;463293;256;1784;-43
2023/01/24 07:17:19;;;;;;;;;;;21.10;32.30;;;;;;444828;266;1721;-43
2023/01/24 07:19:22;;;;;;;;;;;21.10;32.30;;;;;;464399;256;1499;-43
2023/01/24 07:21:23;;;;;;;;;;;21.10;32.40;;;;;;462854;256;1680;-43
2023/01/24 07:23:24;;;;;;;;;;;21.10;32.40;;;;;;462907;256;1281;-43
2023/01/24 07:25:26;;;;;;;;;;;21.10;32.30;;;;;;462941;256;1285;-43
2023/01/24 07:27:27;;;;;;;;;;;21.10;32.30;;;;;;463055;256;1723;-43
2023/01/24 07:29:28;;;;;;;;;;;21.10;32.30;;;;;;463140;256;2202;-44
2023/01/24 07:31:30;;;;;;;;;;;21.10;32.30;;;;;;463004;256;1267;-44
2023/01/24 07:33:31;;;;;;;;;;;21.10;32.30;;;;;;462988;256;1750;-43
2023/01/24 07:35:32;;;;;;;;;;;21.10;32.20;;;;;;444500;266;1190;-43
2023/01/24 07:37:34;;;;;;;;;;;21.10;32.30;;;;;;444343;267;1344;-43
2023/01/24 07:39:35;;;;;;;;;;;21.10;32.20;;;;;;444406;267;1256;-43
2023/01/24 07:41:36;;;;;;;;;;;21.10;32.30;;;;;;444632;267;1267;-43
2023/01/24 07:43:38;;;;;;;;;;;21.10;32.30;;;;;;451843;262;1312;-43
2023/01/24 07:45:39;;;;;;;;;;;21.10;32.30;;;;;;464497;256;1359;-43
2023/01/24 07:47:40;;;;;;;;;;;21.10;32.30;;;;;;444160;266;1282;-43
2023/01/24 07:49:41;;;;;;;;;;;21.10;32.30;;;;;;444157;267;2182;-43
2023/01/24 07:51:44;;;;;;;;;;;21.20;32.20;;;;;;444344;267;1604;-43
2023/01/24 07:53:44;;;;;;;;;;;21.20;32.30;;;;;;451694;263;1609;-43
2023/01/24 07:55:45;;;;;;;;;;;21.10;32.30;;;;;;464596;256;1583;-43
2023/01/24 07:57:47;;;;;;;;;;;21.10;32.40;;;;;;444247;266;1225;-43
2023/01/24 07:59:48;;;;;;;;;;;21.10;32.40;;;;;;444162;267;1291;-43
2023/01/24 08:01:49;;;;;;;;;;;21.10;32.40;;;;;;443817;267;1173;-43
2023/01/24 08:03:51;;;;;;;;;;;21.10;32.40;;;;;;444211;267;1268;-43
2023/01/24 08:05:53;;;;;;;;;;;21.10;32.40;;;;;;444286;267;1271;-43
2023/01/24 08:07:54;;;;;;;;;;;21.10;32.40;;;;;;444344;267;1238;-43
2023/01/24 08:09:55;;;;;;;;;;;21.10;32.40;;;;;;444340;267;2214;-43
2023/01/24 08:11:56;;;;;;;;;;;21.30;32.20;;;;;;451844;262;1140;-44
2023/01/24 08:13:58;;;;;;;;;;;21.50;31.80;;;;;;464795;256;1684;-44
2023/01/24 08:15:59;;;;;;;;;;;21.80;31.50;;;;;;463127;256;1199;-43
2023/01/24 08:18:00;;;;;;;;;;;21.90;31.10;;;;;;444157;266;1318;-43
2023/01/24 08:20:02;;;;;;;;;;;22.10;31.10;;;;;;444530;267;1990;-44
2023/01/24 08:22:03;;;;;;;;;;;22.20;31.00;;;;;;444300;267;2159;-44
2023/01/24 08:24:05;;;;;;;;;;;22.30;30.90;;;;;;444152;267;1270;-43
2023/01/24 08:26:06;;;;;;;;;;;22.30;30.80;;;;;;444080;267;1712;-44
2023/01/24 08:28:07;;;;;;;;;;;22.40;30.70;;;;;;451540;262;1692;-44
2023/01/24 08:30:10;;;;;;;;;;;22.50;30.60;;;;;;464557;256;2214;-44
2023/01/24 08:32:10;;;;;;;;;;;22.60;30.60;;;;;;462862;257;1951;-44
2023/01/24 08:34:11;;;;;;;;;;;22.60;30.40;;;;;;463069;256;1522;-43
2023/01/24 08:36:12;;;;;;;;;;;22.70;30.30;;;;;;462841;256;1695;-44
2023/01/24 08:38:14;;;;;;;;;;;22.70;30.20;;;;;;462934;256;1313;-43
2023/01/24 08:40:15;;;;;;;;;;;22.80;30.10;;;;;;462942;256;1739;-43
2023/01/24 08:42:16;;;;;;;;;;;22.80;30.00;;;;;;451956;261;1793;-43
2023/01/24 08:44:18;;;;;;;;;;;22.90;30.00;;;;;;451814;262;1720;-44
2023/01/24 08:46:19;;;;;;;;;;;22.90;30.00;;;;;;464875;256;2169;-44
2023/01/24 08:48:20;;;;;;;;;;;23.00;30.00;;;;;;463138;256;1298;-44
2023/01/24 08:50:22;;;;;;;;;;;23.00;29.90;;;;;;444362;266;2181;-44
2023/01/24 08:52:23;;;;;;;;;;;23.10;29.90;;;;;;444157;267;2057;-44
2023/01/24 08:54:25;;;;;;;;;;;23.10;29.80;;;;;;444253;267;1934;-44
2023/01/24 08:56:26;;;;;;;;;;;23.10;29.80;;;;;;451897;262;1999;-44
2023/01/24 08:58:27;;;;;;;;;;;23.20;29.80;;;;;;464649;256;1763;-43
2023/01/24 09:00:29;;;;;;;;;;;23.20;29.70;;;;;;444170;266;1381;-44
2023/01/24 09:02:32;;;;;;;;;;;23.20;29.70;;;;;;444185;267;2669;-44
2023/01/24 09:04:32;;;;;;;;;;;23.30;29.70;;;;;;451559;262;2574;-44
2023/01/24 09:06:33;;;;;;;;;;;23.30;29.70;;;;;;464478;256;1900;-43
2023/01/24 09:08:35;;;;;;;;;;;23.30;29.70;;;;;;464750;255;1513;-43
2023/01/24 09:10:36;;;;;;;;;;;23.30;29.70;;;;;;463109;256;2230;-44
2023/01/24 09:12:37;;;;;;;;;;;23.40;29.70;;;;;;463104;256;1719;-44
2023/01/24 09:14:38;;;;;;;;;;;23.40;29.70;;;;;;444256;266;1657;-43
2023/01/24 09:16:40;;;;;;;;;;;23.40;29.70;;;;;;444250;267;1788;-43
2023/01/24 09:18:41;;;;;;;;;;;23.40;29.70;;;;;;451890;262;1735;-43
2023/01/24 09:20:42;;;;;;;;;;;23.40;29.70;;;;;;464956;256;2094;-44
2023/01/24 09:22:44;;;;;;;;;;;23.40;29.70;;;;;;451799;261;2245;-44
2023/01/24 09:24:45;;;;;;;;;;;23.50;29.70;;;;;;444312;267;2192;-43
2023/01/24 09:26:46;;;;;;;;;;;23.50;29.70;;;;;;444335;267;1821;-44
2023/01/24 09:28:48;;;;;;;;;;;23.50;29.60;;;;;;451826;262;1730;-44
2023/01/24 09:30:49;;;;;;;;;;;23.50;29.60;;;;;;464598;256;2194;-43
2023/01/24 09:32:51;;;;;;;;;;;23.60;29.70;;;;;;462893;256;1711;-44
2023/01/24 09:34:52;;;;;;;;;;;23.60;29.70;;;;;;463035;256;1249;-44
2023/01/24 09:36:54;;;;;;;;;;;23.60;29.70;;;;;;462873;256;1722;-44
2023/01/24 09:38:55;;;;;;;;;;;23.70;29.70;;;;;;462953;256;1759;-44
2023/01/24 09:40:56;;;;;;;;;;;23.70;29.70;;;;;;462916;256;1675;-44
2023/01/24 09:42:57;;;;;;;;;;;23.70;29.60;;;;;;461240;256;1729;-44
2023/01/24 09:44:59;;;;;;;;;;;23.80;29.70;;;;;;451822;261;2288;-43
2023/01/24 09:47:00;;;;;;;;;;;23.80;29.70;;;;;;451852;262;1651;-44
2023/01/24 09:49:01;;;;;;;;;;;23.80;29.70;;;;;;464704;256;2030;-43
2023/01/24 09:51:03;;;;;;;;;;;23.80;29.70;;;;;;462981;256;2218;-44
2023/01/24 09:53:04;;;;;;;;;;;23.80;29.80;;;;;;463172;256;1850;-44
2023/01/24 09:55:05;;;;;;;;;;;23.80;29.80;;;;;;463073;256;1251;-44
2023/01/24 09:57:07;;;;;;;;;;;23.80;29.80;;;;;;463063;256;1481;-43
2023/01/24 09:59:10;;;;;;;;;;;23.80;29.70;;;;;;444296;266;1285;-43
2023/01/24 10:01:10;;;;;;;;;;;23.90;29.70;;;;;;451368;262;1707;-44
2023/01/24 10:03:11;;;;;;;;;;;23.90;29.70;;;;;;464640;256;1873;-44
2023/01/24 10:05:13;;;;;;;;;;;23.90;29.70;;;;;;444248;266;1765;-44
2023/01/24 10:07:14;;;;;;;;;;;23.90;29.70;;;;;;464539;256;1678;-44
2023/01/24 10:09:15;;;;;;;;;;;23.90;29.70;;;;;;444204;266;1685;-43
2023/01/24 10:11:16;;;;;;;;;;;23.90;29.70;;;;;;444163;267;2221;-44
2023/01/24 10:13:18;;;;;;;;;;;23.90;29.70;;;;;;452128;262;1568;-44
2023/01/24 10:15:19;;;;;;;;;;;23.90;29.70;;;;;;464858;256;1721;-44
2023/01/24 10:17:21;;;;;;;;;;;24.00;29.70;;;;;;444185;266;1671;-44
2023/01/24 10:19:22;;;;;;;;;;;24.00;29.70;;;;;;444189;267;1958;-44
2023/01/24 10:21:23;;;;;;;;;;;24.00;29.80;;;;;;444143;267;1795;-43
2023/01/24 10:23:24;;;;;;;;;;;24.00;29.80;;;;;;444237;267;1623;-44
2023/01/24 10:25:26;;;;;;;;;;;24.00;29.80;;;;;;444402;267;1670;-44
2023/01/24 10:27:27;;;;;;;;;;;24.00;29.80;;;;;;444348;267;1688;-44
2023/01/24 10:29:28;;;;;;;;;;;24.00;29.80;;;;;;451751;262;2114;-44
2023/01/24 10:31:30;;;;;;;;;;;23.90;29.80;;;;;;464729;256;2202;-43
2023/01/24 10:33:31;;;;;;;;;;;23.90;29.90;;;;;;462984;256;1211;-44
2023/01/24 10:35:32;;;;;;;;;;;23.60;30.00;;;;;;462903;256;1977;-44
2023/01/24 10:37:34;;;;;;;;;;;23.40;30.40;;;;;;444181;266;1301;-43
2023/01/24 10:39:35;;;;;;;;;;;23.20;30.70;;;;;;451812;262;1865;-43
2023/01/24 10:41:36;;;;;;;;;;;23.10;30.90;;;;;;464725;256;1706;-43
2023/01/24 10:43:38;;;;;;;;;;;22.90;31.10;;;;;;444327;266;1973;-43
2023/01/24 10:45:39;;;;;;;;;;;22.80;31.20;;;;;;444195;267;1800;-43
2023/01/24 10:47:40;;;;;;;;;;;22.70;31.30;;;;;;451826;262;1691;-44
2023/01/24 10:49:42;;;;;;;;;;;22.70;31.50;;;;;;464584;256;2179;-43
2023/01/24 10:51:43;;;;;;;;;;;22.60;31.50;;;;;;462944;256;1726;-43
2023/01/24 10:53:44;;;;;;;;;;;22.50;31.60;;;;;;444343;266;1355;-43
2023/01/24 10:55:46;;;;;;;;;;;22.50;31.80;;;;;;444289;267;2184;-44
2023/01/24 10:57:48;;;;;;;;;;;22.50;31.80;;;;;;452161;262;2130;-43
2023/01/24 10:59:48;;;;;;;;;;;22.50;31.90;;;;;;464696;256;2166;-44
2023/01/24 11:01:50;;;;;;;;;;;22.40;31.90;;;;;;444431;266;1700;-43
2023/01/24 11:03:51;;;;;;;;;;;22.40;32.00;;;;;;444204;267;1795;-43
2023/01/24 11:05:52;;;;;;;;;;;22.30;32.00;;;;;;444088;267;1769;-43
2023/01/24 11:07:54;;;;;;;;;;;22.30;32.20;;;;;;444160;267;1597;-43
2023/01/24 11:09:55;;;;;;;;;;;22.30;32.20;;;;;;451809;262;2353;-43
2023/01/24 11:11:56;;;;;;;;;;;22.30;32.20;;;;;;464618;256;1915;-43
2023/01/24 11:13:57;;;;;;;;;;;22.20;32.20;;;;;;462869;256;1647;-43
2023/01/24 11:16:00;;;;;;;;;;;22.20;32.20;;;;;;462897;256;1357;-43
2023/01/24 11:18:00;;;;;;;;;;;22.20;32.30;;;;;;462811;257;2183;-43
2023/01/24 11:20:01;;;;;;;;;;;22.20;32.30;;;;;;444138;266;1712;-43
2023/01/24 11:22:03;;;;;;;;;;;22.10;32.30;;;;;;444161;267;1691;-43
2023/01/24 11:24:04;;;;;;;;;;;22.10;32.30;;;;;;444144;267;1543;-43
2023/01/24 11:26:05;;;;;;;;;;;22.10;32.40;;;;;;451859;262;1700;-44
2023/01/24 11:28:07;;;;;;;;;;;22.10;32.40;;;;;;464801;256;1590;-43
2023/01/24 11:30:08;;;;;;;;;;;22.10;32.40;;;;;;463015;256;2223;-43
2023/01/24 11:32:09;;;;;;;;;;;22.00;32.40;;;;;;462901;256;1790;-43
2023/01/24 11:34:11;;;;;;;;;;;22.00;32.50;;;;;;463104;256;1808;-43
2023/01/24 11:36:12;;;;;;;;;;;22.00;32.50;;;;;;462996;256;1749;-43
2023/01/24 11:38:13;;;;;;;;;;;22.00;32.50;;;;;;444388;266;1922;-43
2023/01/24 11:40:15;;;;;;;;;;;22.00;32.60;;;;;;444208;267;1671;-43
2023/01/24 11:42:16;;;;;;;;;;;22.00;32.50;;;;;;444239;267;1702;-43
2023/01/24 11:44:17;;;;;;;;;;;22.00;32.40;;;;;;451705;262;1785;-44
2023/01/24 11:46:20;;;;;;;;;;;22.10;32.40;;;;;;465018;256;1577;-43
2023/01/24 11:48:20;;;;;;;;;;;22.00;32.40;;;;;;462920;256;1665;-43
2023/01/24 11:50:22;;;;;;;;;;;22.00;32.40;;;;;;463090;256;2199;-43
2023/01/24 11:52:24;;;;;;;;;;;22.00;32.40;;;;;;463251;257;1849;-43
2023/01/24 11:54:24;;;;;;;;;;;22.00;32.40;;;;;;462910;257;1981;-43
2023/01/24 11:56:27;;;;;;;;;;;22.00;32.50;;;;;;444500;266;1218;-43
2023/01/24 11:58:27;;;;;;;;;;;22.00;32.50;;;;;;451906;263;1844;-43
2023/01/24 12:00:28;;;;;;;;;;;22.00;32.50;;;;;;464742;256;1300;-43
2023/01/24 12:02:30;;;;;;;;;;;22.00;32.60;;;;;;444321;266;1653;-43
2023/01/24 12:04:31;;;;;;;;;;;22.00;32.60;;;;;;444715;267;1630;-43
2023/01/24 12:06:32;;;;;;;;;;;22.00;32.60;;;;;;451869;262;1833;-43
2023/01/24 12:08:34;;;;;;;;;;;22.00;32.50;;;;;;464441;256;1375;-43
2023/01/24 12:10:35;;;;;;;;;;;22.00;32.50;;;;;;451681;261;2182;-43
2023/01/24 12:12:36;;;;;;;;;;;21.90;32.50;;;;;;451588;262;1940;-43
2023/01/24 12:14:38;;;;;;;;;;;21.90;32.60;;;;;;464864;256;2129;-43
2023/01/24 12:16:42;;;;;;;;;;;21.90;32.60;;;;;;444340;266;1279;-43
2023/01/24 12:18:41;;;;;;;;;;;21.90;32.70;;;;;;451927;262;2243;-43
2023/01/24 12:20:42;;;;;;;;;;;21.90;32.70;;;;;;464905;256;1400;-43
2023/01/24 12:22:44;;;;;;;;;;;22.10;58.70;;;;;;462800;256;1264;-43
2023/01/24 12:24:45;;;;;;;;;;;21.90;33.30;;;;;;463346;256;1922;-43
2023/01/24 12:26:46;;;;;;;;;;;22.00;32.80;;;;;;444424;266;1776;-43
2023/01/24 12:28:49;;;;;;;;;;;21.90;32.80;;;;;;444294;267;1673;-43
2023/01/24 12:30:49;;;;;;;;;;;21.90;32.80;;;;;;444209;267;2222;-43
2023/01/24 12:32:50;;;;;;;;;;;21.90;33.00;;;;;;452045;262;1253;-43
2023/01/24 12:34:52;;;;;;;;;;;21.90;32.90;;;;;;464852;256;1265;-43